sensor_id;sensor_type;location;lat;lon;timestamp;pressure;altitude;pressure_sealevel;temperature;humidity
38718;BME280;24468;52.128;9.278;2024-01-25T00:00:47;101444.38;;;8.84;100.00
38718;BME280;24468;52.128;9.278;2024-01-25T00:03:13;101442.44;;;8.90;100.00
38718;BME280;24468;52.128;9.278;2024-01-25T00:05:38;101451.59;;;8.83;100.00
38718;BME280;24468;52.128;9.278;2024-01-25T00:08:04;101434.66;;;8.77;100.00
38718;BME280;24468;52.128;9.278;2024-01-25T00:10:30;101439.59;;;8.97;100.00
38718;BME280;24468;52.128;9.278;2024-01-25T00:12:55;101435.78;;;8.66;100.00
38718;BME280;24468;52.128;9.278;2024-01-25T00:15:21;101467.75;;;8.82;100.00
38718;BME280;24468;52.128;9.278;2024-01-25T00:17:46;101437.50;;;8.71;100.00
38718;BME280;24468;52.128;9.278;2024-01-25T00:20:12;101457.13;;;8.76;100.00
38718;BME280;24468;52.128;9.278;2024-01-25T00:22:37;101460.47;;;8.87;100.00
38718;BME280;24468;52.128;9.278;2024-01-25T00:25:04;101460.78;;;8.72;100.00
38718;BME280;24468;52.128;9.278;2024-01-25T00:27:29;101448.41;;;8.64;100.00
38718;BME280;24468;52.128;9.278;2024-01-25T00:29:55;101481.38;;;8.74;100.00
38718;BME280;24468;52.128;9.278;2024-01-25T00:32:21;101461.56;;;8.77;100.00
38718;BME280;24468;52.128;9.278;2024-01-25T00:34:47;101465.22;;;8.74;100.00
38718;BME280;24468;52.128;9.278;2024-01-25T00:37:13;101487.50;;;8.81;100.00
38718;BME280;24468;52.128;9.278;2024-01-25T00:39:39;101468.63;;;8.82;100.00
38718;BME280;24468;52.128;9.278;2024-01-25T00:42:06;101476.78;;;8.79;100.00
38718;BME280;24468;52.128;9.278;2024-01-25T00:44:33;101462.16;;;8.91;100.00
38718;BME280;24468;52.128;9.278;2024-01-25T00:46:59;101469.63;;;8.78;100.00
38718;BME280;24468;52.128;9.278;2024-01-25T00:49:25;101479.03;;;8.57;100.00
38718;BME280;24468;52.128;9.278;2024-01-25T00:51:58;101496.59;;;8.75;100.00
38718;BME280;24468;52.128;9.278;2024-01-25T00:54:24;101473.28;;;8.76;100.00
38718;BME280;24468;52.128;9.278;2024-01-25T00:56:50;101461.63;;;8.75;100.00
38718;BME280;24468;52.128;9.278;2024-01-25T00:59:21;101460.59;;;8.81;100.00
38718;BME280;24468;52.128;9.278;2024-01-25T01:01:48;101484.03;;;8.76;100.00
38718;BME280;24468;52.128;9.278;2024-01-25T01:04:17;101479.38;;;8.84;100.00
38718;BME280;24468;52.128;9.278;2024-01-25T01:06:43;101485.28;;;8.59;100.00
38718;BME280;24468;52.128;9.278;2024-01-25T01:09:08;101480.75;;;8.61;100.00
38718;BME280;24468;52.128;9.278;2024-01-25T01:11:35;101485.13;;;8.67;100.00
38718;BME280;24468;52.128;9.278;2024-01-25T01:14:01;101464.50;;;8.66;100.00
38718;BME280;24468;52.128;9.278;2024-01-25T01:16:27;101462.03;;;8.57;100.00
38718;BME280;24468;52.128;9.278;2024-01-25T01:18:52;101451.84;;;8.71;100.00
38718;BME280;24468;52.128;9.278;2024-01-25T01:21:18;101488.00;;;8.58;100.00
38718;BME280;24468;52.128;9.278;2024-01-25T01:23:43;101459.13;;;8.66;100.00
38718;BME280;24468;52.128;9.278;2024-01-25T01:26:09;101449.25;;;8.66;100.00
38718;BME280;24468;52.128;9.278;2024-01-25T01:28:35;101474.59;;;8.55;100.00
38718;BME280;24468;52.128;9.278;2024-01-25T01:31:00;101459.69;;;8.40;100.00
38718;BME280;24468;52.128;9.278;2024-01-25T01:33:26;101503.78;;;8.28;100.00
38718;BME280;24468;52.128;9.278;2024-01-25T01:35:51;101474.72;;;8.50;100.00
38718;BME280;24468;52.128;9.278;2024-01-25T01:38:17;101486.53;;;8.41;100.00
38718;BME280;24468;52.128;9.278;2024-01-25T01:40:44;101486.16;;;8.61;100.00
38718;BME280;24468;52.128;9.278;2024-01-25T01:43:18;101480.97;;;8.51;100.00
38718;BME280;24468;52.128;9.278;2024-01-25T01:45:44;101490.88;;;8.50;100.00
38718;BME280;24468;52.128;9.278;2024-01-25T01:48:10;101492.84;;;8.40;100.00
38718;BME280;24468;52.128;9.278;2024-01-25T01:50:35;101462.31;;;8.43;100.00
38718;BME280;24468;52.128;9.278;2024-01-25T01:53:01;101468.34;;;8.54;100.00
38718;BME280;24468;52.128;9.278;2024-01-25T01:55:27;101495.16;;;8.59;100.00
38718;BME280;24468;52.128;9.278;2024-01-25T01:57:53;101509.88;;;8.38;100.00
38718;BME280;24468;52.128;9.278;2024-01-25T02:00:20;101485.63;;;8.42;100.00
38718;BME280;24468;52.128;9.278;2024-01-25T02:02:46;101485.50;;;8.49;100.00
38718;BME280;24468;52.128;9.278;2024-01-25T02:05:12;101479.09;;;8.56;100.00
38718;BME280;24468;52.128;9.278;2024-01-25T02:07:39;101474.72;;;8.50;100.00
38718;BME280;24468;52.128;9.278;2024-01-25T02:10:07;101481.50;;;8.23;100.00
38718;BME280;24468;52.128;9.278;2024-01-25T02:12:32;101475.94;;;8.32;100.00
38718;BME280;24468;52.128;9.278;2024-01-25T02:14:58;101482.09;;;8.40;100.00
38718;BME280;24468;52.128;9.278;2024-01-25T02:17:23;101496.66;;;8.27;100.00
38718;BME280;24468;52.128;9.278;2024-01-25T02:19:49;101496.47;;;8.36;100.00
38718;BME280;24468;52.128;9.278;2024-01-25T02:22:18;101490.97;;;8.44;100.00
38718;BME280;24468;52.128;9.278;2024-01-25T02:24:44;101478.50;;;8.38;100.00
38718;BME280;24468;52.128;9.278;2024-01-25T02:27:09;101477.91;;;8.22;100.00
38718;BME280;24468;52.128;9.278;2024-01-25T02:29:35;101486.03;;;8.21;100.00
38718;BME280;24468;52.128;9.278;2024-01-25T02:32:00;101492.88;;;8.37;100.00
38718;BME280;24468;52.128;9.278;2024-01-25T02:34:26;101495.72;;;8.28;100.00
38718;BME280;24468;52.128;9.278;2024-01-25T02:36:51;101487.78;;;8.22;100.00
38718;BME280;24468;52.128;9.278;2024-01-25T02:39:17;101495.66;;;8.33;100.00
38718;BME280;24468;52.128;9.278;2024-01-25T02:41:43;101504.78;;;8.22;100.00
38718;BME280;24468;52.128;9.278;2024-01-25T02:44:08;101499.66;;;8.12;100.00
38718;BME280;24468;52.128;9.278;2024-01-25T02:46:34;101514.84;;;8.13;100.00
38718;BME280;24468;52.128;9.278;2024-01-25T02:48:59;101498.75;;;8.11;100.00
38718;BME280;24468;52.128;9.278;2024-01-25T02:51:25;101502.34;;;8.12;100.00
38718;BME280;24468;52.128;9.278;2024-01-25T02:53:50;101505.88;;;8.14;100.00
38718;BME280;24468;52.128;9.278;2024-01-25T02:56:16;101538.97;;;8.16;100.00
38718;BME280;24468;52.128;9.278;2024-01-25T02:58:41;101540.03;;;8.07;100.00
38718;BME280;24468;52.128;9.278;2024-01-25T03:01:07;101524.53;;;8.23;100.00
38718;BME280;24468;52.128;9.278;2024-01-25T03:03:32;101516.50;;;8.20;100.00
38718;BME280;24468;52.128;9.278;2024-01-25T03:05:58;101527.38;;;8.14;100.00
38718;BME280;24468;52.128;9.278;2024-01-25T03:08:23;101522.47;;;8.36;100.00
38718;BME280;24468;52.128;9.278;2024-01-25T03:10:49;101520.97;;;8.21;100.00
38718;BME280;24468;52.128;9.278;2024-01-25T03:13:15;101520.94;;;8.22;100.00
38718;BME280;24468;52.128;9.278;2024-01-25T03:15:43;101529.03;;;8.21;100.00
38718;BME280;24468;52.128;9.278;2024-01-25T03:18:09;101546.97;;;8.20;100.00
38718;BME280;24468;52.128;9.278;2024-01-25T03:20:35;101544.25;;;8.22;100.00
38718;BME280;24468;52.128;9.278;2024-01-25T03:23:00;101556.50;;;8.40;100.00
38718;BME280;24468;52.128;9.278;2024-01-25T03:25:26;101550.66;;;8.15;100.00
38718;BME280;24468;52.128;9.278;2024-01-25T03:27:51;101561.38;;;8.16;100.00
38718;BME280;24468;52.128;9.278;2024-01-25T03:30:17;101549.94;;;8.05;100.00
38718;BME280;24468;52.128;9.278;2024-01-25T03:32:42;101557.00;;;8.11;100.00
38718;BME280;24468;52.128;9.278;2024-01-25T03:35:08;101562.94;;;8.28;100.00
38718;BME280;24468;52.128;9.278;2024-01-25T03:37:34;101557.84;;;8.13;100.00
38718;BME280;24468;52.128;9.278;2024-01-25T03:39:59;101573.19;;;8.08;100.00
38718;BME280;24468;52.128;9.278;2024-01-25T03:42:25;101574.06;;;8.08;100.00
38718;BME280;24468;52.128;9.278;2024-01-25T03:44:51;101585.69;;;8.09;100.00
38718;BME280;24468;52.128;9.278;2024-01-25T03:47:17;101577.31;;;8.27;100.00
38718;BME280;24468;52.128;9.278;2024-01-25T03:49:43;101571.78;;;8.35;100.00
38718;BME280;24468;52.128;9.278;2024-01-25T03:52:08;101575.41;;;8.34;100.00
38718;BME280;24468;52.128;9.278;2024-01-25T03:54:34;101603.03;;;7.89;100.00
38718;BME280;24468;52.128;9.278;2024-01-25T03:56:59;101568.78;;;8.04;100.00
38718;BME280;24468;52.128;9.278;2024-01-25T03:59:25;101581.47;;;7.95;100.00
38718;BME280;24468;52.128;9.278;2024-01-25T04:01:51;101591.94;;;8.11;100.00
38718;BME280;24468;52.128;9.278;2024-01-25T04:04:16;101596.13;;;8.27;100.00
38718;BME280;24468;52.128;9.278;2024-01-25T04:06:42;101591.72;;;8.23;100.00
38718;BME280;24468;52.128;9.278;2024-01-25T04:09:09;101603.84;;;7.96;100.00
38718;BME280;24468;52.128;9.278;2024-01-25T04:11:36;101602.38;;;8.29;100.00
38718;BME280;24468;52.128;9.278;2024-01-25T04:14:02;101586.28;;;8.26;100.00
38718;BME280;24468;52.128;9.278;2024-01-25T04:16:28;101583.81;;;8.14;100.00
38718;BME280;24468;52.128;9.278;2024-01-25T04:18:53;101586.78;;;7.98;100.00
38718;BME280;24468;52.128;9.278;2024-01-25T04:21:19;101588.22;;;8.18;100.00
38718;BME280;24468;52.128;9.278;2024-01-25T04:23:44;101616.94;;;8.16;100.00
38718;BME280;24468;52.128;9.278;2024-01-25T04:26:10;101595.97;;;7.84;100.00
38718;BME280;24468;52.128;9.278;2024-01-25T04:28:35;101605.91;;;7.78;100.00
38718;BME280;24468;52.128;9.278;2024-01-25T04:31:02;101578.72;;;7.97;100.00
38718;BME280;24468;52.128;9.278;2024-01-25T04:33:31;101585.34;;;7.76;100.00
38718;BME280;24468;52.128;9.278;2024-01-25T04:35:56;101582.34;;;7.96;100.00
38718;BME280;24468;52.128;9.278;2024-01-25T04:38:22;101578.91;;;7.88;100.00
38718;BME280;24468;52.128;9.278;2024-01-25T04:40:47;101601.38;;;7.82;100.00
38718;BME280;24468;52.128;9.278;2024-01-25T04:43:13;101576.44;;;7.74;100.00
38718;BME280;24468;52.128;9.278;2024-01-25T04:45:39;101580.81;;;7.79;100.00
38718;BME280;24468;52.128;9.278;2024-01-25T04:48:06;101592.63;;;7.69;100.00
38718;BME280;24468;52.128;9.278;2024-01-25T04:50:32;101582.66;;;7.76;100.00
38718;BME280;24468;52.128;9.278;2024-01-25T04:52:57;101598.00;;;7.68;100.00
38718;BME280;24468;52.128;9.278;2024-01-25T04:55:23;101601.50;;;7.73;100.00
38718;BME280;24468;52.128;9.278;2024-01-25T04:57:48;101609.72;;;7.64;100.00
38718;BME280;24468;52.128;9.278;2024-01-25T05:00:20;101627.94;;;7.42;100.00
38718;BME280;24468;52.128;9.278;2024-01-25T05:02:47;101632.97;;;7.65;100.00
38718;BME280;24468;52.128;9.278;2024-01-25T05:05:12;101628.56;;;7.59;100.00
38718;BME280;24468;52.128;9.278;2024-01-25T05:07:38;101629.34;;;7.69;100.00
38718;BME280;24468;52.128;9.278;2024-01-25T05:10:04;101643.75;;;7.63;100.00
38718;BME280;24468;52.128;9.278;2024-01-25T05:12:30;101635.84;;;7.51;100.00
38718;BME280;24468;52.128;9.278;2024-01-25T05:14:55;101633.84;;;7.67;100.00
38718;BME280;24468;52.128;9.278;2024-01-25T05:17:21;101627.59;;;7.65;100.00
38718;BME280;24468;52.128;9.278;2024-01-25T05:19:46;101630.56;;;7.46;100.00
38718;BME280;24468;52.128;9.278;2024-01-25T05:22:12;101634.56;;;7.78;100.00
38718;BME280;24468;52.128;9.278;2024-01-25T05:24:37;101655.53;;;7.53;100.00
38718;BME280;24468;52.128;9.278;2024-01-25T05:27:03;101624.22;;;7.52;100.00
38718;BME280;24468;52.128;9.278;2024-01-25T05:29:28;101643.91;;;7.51;100.00
38718;BME280;24468;52.128;9.278;2024-01-25T05:31:54;101644.78;;;7.54;100.00
38718;BME280;24468;52.128;9.278;2024-01-25T05:34:19;101651.97;;;7.52;100.00
38718;BME280;24468;52.128;9.278;2024-01-25T05:36:45;101647.75;;;7.31;100.00
38718;BME280;24468;52.128;9.278;2024-01-25T05:39:10;101649.44;;;7.40;100.00
38718;BME280;24468;52.128;9.278;2024-01-25T05:41:36;101646.72;;;7.43;100.00
38718;BME280;24468;52.128;9.278;2024-01-25T05:44:02;101652.00;;;7.49;100.00
38718;BME280;24468;52.128;9.278;2024-01-25T05:46:27;101639.66;;;7.36;100.00
38718;BME280;24468;52.128;9.278;2024-01-25T05:48:53;101653.16;;;7.30;100.00
38718;BME280;24468;52.128;9.278;2024-01-25T05:51:18;101659.56;;;7.20;100.00
38718;BME280;24468;52.128;9.278;2024-01-25T05:53:44;101661.09;;;7.41;100.00
38718;BME280;24468;52.128;9.278;2024-01-25T05:56:09;101666.56;;;7.31;100.00
38718;BME280;24468;52.128;9.278;2024-01-25T05:58:35;101663.44;;;7.62;100.00
38718;BME280;24468;52.128;9.278;2024-01-25T06:01:01;101673.41;;;7.57;100.00
38718;BME280;24468;52.128;9.278;2024-01-25T06:03:27;101684.09;;;7.58;100.00
38718;BME280;24468;52.128;9.278;2024-01-25T06:05:53;101681.44;;;7.57;100.00
38718;BME280;24468;52.128;9.278;2024-01-25T06:08:19;101683.88;;;7.74;100.00
38718;BME280;24468;52.128;9.278;2024-01-25T06:10:44;101671.31;;;7.76;100.00
38718;BME280;24468;52.128;9.278;2024-01-25T06:13:10;101689.22;;;7.77;100.00
38718;BME280;24468;52.128;9.278;2024-01-25T06:15:35;101691.13;;;7.69;100.00
38718;BME280;24468;52.128;9.278;2024-01-25T06:18:01;101687.78;;;7.51;100.00
38718;BME280;24468;52.128;9.278;2024-01-25T06:20:26;101699.50;;;7.43;100.00
38718;BME280;24468;52.128;9.278;2024-01-25T06:22:52;101700.22;;;7.58;100.00
38718;BME280;24468;52.128;9.278;2024-01-25T06:25:17;101698.22;;;7.73;100.00
38718;BME280;24468;52.128;9.278;2024-01-25T06:27:43;101709.47;;;7.36;100.00
38718;BME280;24468;52.128;9.278;2024-01-25T06:30:09;101714.56;;;7.56;100.00
38718;BME280;24468;52.128;9.278;2024-01-25T06:32:36;101715.53;;;7.52;100.00
38718;BME280;24468;52.128;9.278;2024-01-25T06:35:01;101708.13;;;7.71;100.00
38718;BME280;24468;52.128;9.278;2024-01-25T06:37:27;101700.25;;;7.57;100.00
38718;BME280;24468;52.128;9.278;2024-01-25T06:39:53;101728.16;;;7.42;100.00
38718;BME280;24468;52.128;9.278;2024-01-25T06:42:18;101726.69;;;7.15;100.00
38718;BME280;24468;52.128;9.278;2024-01-25T06:44:44;101726.63;;;7.21;100.00
38718;BME280;24468;52.128;9.278;2024-01-25T06:47:10;101732.69;;;7.39;100.00
38718;BME280;24468;52.128;9.278;2024-01-25T06:49:35;101727.38;;;7.34;100.00
38718;BME280;24468;52.128;9.278;2024-01-25T06:52:01;101722.09;;;7.26;100.00
38718;BME280;24468;52.128;9.278;2024-01-25T06:54:27;101716.50;;;7.45;100.00
38718;BME280;24468;52.128;9.278;2024-01-25T06:56:52;101728.28;;;7.33;100.00
38718;BME280;24468;52.128;9.278;2024-01-25T06:59:18;101732.03;;;7.18;100.00
38718;BME280;24468;52.128;9.278;2024-01-25T07:01:44;101746.41;;;7.14;100.00
38718;BME280;24468;52.128;9.278;2024-01-25T07:04:09;101741.88;;;7.18;100.00
38718;BME280;24468;52.128;9.278;2024-01-25T07:06:35;101740.00;;;7.27;100.00
38718;BME280;24468;52.128;9.278;2024-01-25T07:09:00;101745.16;;;7.44;100.00
38718;BME280;24468;52.128;9.278;2024-01-25T07:11:26;101743.31;;;7.49;100.00
38718;BME280;24468;52.128;9.278;2024-01-25T07:13:51;101743.31;;;7.49;100.00
38718;BME280;24468;52.128;9.278;2024-01-25T07:16:17;101728.28;;;7.31;100.00
38718;BME280;24468;52.128;9.278;2024-01-25T07:18:44;101726.50;;;7.32;100.00
38718;BME280;24468;52.128;9.278;2024-01-25T07:21:10;101733.69;;;7.30;100.00
38718;BME280;24468;52.128;9.278;2024-01-25T07:23:36;101727.66;;;7.11;100.00
38718;BME280;24468;52.128;9.278;2024-01-25T07:26:01;101748.16;;;7.17;100.00
38718;BME280;24468;52.128;9.278;2024-01-25T07:28:27;101743.69;;;7.19;100.00
38718;BME280;24468;52.128;9.278;2024-01-25T07:30:52;101739.91;;;7.32;100.00
38718;BME280;24468;52.128;9.278;2024-01-25T07:33:18;101746.31;;;7.20;100.00
38718;BME280;24468;52.128;9.278;2024-01-25T07:35:43;101758.81;;;7.21;100.00
38718;BME280;24468;52.128;9.278;2024-01-25T07:38:13;101766.84;;;7.27;100.00
38718;BME280;24468;52.128;9.278;2024-01-25T07:40:39;101773.50;;;7.67;100.00
38718;BME280;24468;52.128;9.278;2024-01-25T07:43:05;101764.88;;;8.08;100.00
38718;BME280;24468;52.128;9.278;2024-01-25T07:45:32;101777.50;;;7.35;100.00
38718;BME280;24468;52.128;9.278;2024-01-25T07:47:58;101775.53;;;7.48;100.00
38718;BME280;24468;52.128;9.278;2024-01-25T07:50:23;101773.84;;;7.39;100.00
38718;BME280;24468;52.128;9.278;2024-01-25T07:52:49;101764.75;;;7.52;100.00
38718;BME280;24468;52.128;9.278;2024-01-25T07:55:16;101776.56;;;7.36;100.00
38718;BME280;24468;52.128;9.278;2024-01-25T07:57:41;101774.00;;;7.27;100.00
38718;BME280;24468;52.128;9.278;2024-01-25T08:00:07;101767.56;;;7.40;100.00
38718;BME280;24468;52.128;9.278;2024-01-25T08:02:37;101780.38;;;7.17;100.00
38718;BME280;24468;52.128;9.278;2024-01-25T08:05:05;101785.66;;;7.21;100.00
38718;BME280;24468;52.128;9.278;2024-01-25T08:07:31;101783.47;;;6.72;100.00
38718;BME280;24468;52.128;9.278;2024-01-25T08:09:57;101795.69;;;7.05;100.00
38718;BME280;24468;52.128;9.278;2024-01-25T08:12:24;101787.63;;;7.04;100.00
38718;BME280;24468;52.128;9.278;2024-01-25T08:14:50;101797.06;;;7.46;100.00
38718;BME280;24468;52.128;9.278;2024-01-25T08:17:16;101805.22;;;7.35;100.00
38718;BME280;24468;52.128;9.278;2024-01-25T08:19:41;101806.78;;;7.53;100.00
38718;BME280;24468;52.128;9.278;2024-01-25T08:22:07;101805.38;;;7.22;100.00
38718;BME280;24468;52.128;9.278;2024-01-25T08:24:32;101803.31;;;7.47;100.00
38718;BME280;24468;52.128;9.278;2024-01-25T08:26:58;101804.63;;;7.06;100.00
38718;BME280;24468;52.128;9.278;2024-01-25T08:29:23;101808.28;;;6.96;100.00
38718;BME280;24468;52.128;9.278;2024-01-25T08:31:49;101811.84;;;6.96;100.00
38718;BME280;24468;52.128;9.278;2024-01-25T08:34:14;101810.75;;;7.22;100.00
38718;BME280;24468;52.128;9.278;2024-01-25T08:36:40;101817.94;;;7.15;100.00
38718;BME280;24468;52.128;9.278;2024-01-25T08:39:05;101824.88;;;7.38;100.00
38718;BME280;24468;52.128;9.278;2024-01-25T08:41:31;101818.13;;;7.78;100.00
38718;BME280;24468;52.128;9.278;2024-01-25T08:43:57;101829.56;;;7.96;100.00
38718;BME280;24468;52.128;9.278;2024-01-25T08:46:22;101818.34;;;7.62;100.00
38718;BME280;24468;52.128;9.278;2024-01-25T08:48:48;101829.44;;;8.05;100.00
38718;BME280;24468;52.128;9.278;2024-01-25T08:51:13;101833.41;;;7.76;100.00
38718;BME280;24468;52.128;9.278;2024-01-25T08:53:39;101840.00;;;7.45;100.00
38718;BME280;24468;52.128;9.278;2024-01-25T08:56:05;101838.47;;;7.99;100.00
38718;BME280;24468;52.128;9.278;2024-01-25T08:58:30;101825.25;;;7.81;100.00
38718;BME280;24468;52.128;9.278;2024-01-25T09:00:56;101842.13;;;7.92;100.00
38718;BME280;24468;52.128;9.278;2024-01-25T09:03:21;101841.16;;;7.22;100.00
38718;BME280;24468;52.128;9.278;2024-01-25T09:05:48;101838.09;;;7.56;100.00
38718;BME280;24468;52.128;9.278;2024-01-25T09:08:15;101842.97;;;7.97;100.00
38718;BME280;24468;52.128;9.278;2024-01-25T09:10:42;101845.56;;;8.05;100.00
38718;BME280;24468;52.128;9.278;2024-01-25T09:13:08;101846.63;;;7.93;100.00
38718;BME280;24468;52.128;9.278;2024-01-25T09:15:34;101849.19;;;8.04;100.00
38718;BME280;24468;52.128;9.278;2024-01-25T09:17:59;101844.09;;;7.79;100.00
38718;BME280;24468;52.128;9.278;2024-01-25T09:20:25;101848.31;;;8.00;100.00
38718;BME280;24468;52.128;9.278;2024-01-25T09:22:51;101842.28;;;7.82;100.00
38718;BME280;24468;52.128;9.278;2024-01-25T09:25:19;101853.72;;;7.97;100.00
38718;BME280;24468;52.128;9.278;2024-01-25T09:27:45;101848.63;;;7.73;100.00
38718;BME280;24468;52.128;9.278;2024-01-25T09:30:11;101859.53;;;7.61;100.00
38718;BME280;24468;52.128;9.278;2024-01-25T09:32:36;101869.47;;;7.51;100.00
38718;BME280;24468;52.128;9.278;2024-01-25T09:35:02;101863.75;;;7.83;100.00
38718;BME280;24468;52.128;9.278;2024-01-25T09:37:28;101880.16;;;7.60;100.00
38718;BME280;24468;52.128;9.278;2024-01-25T09:39:54;101881.25;;;7.39;100.00
38718;BME280;24468;52.128;9.278;2024-01-25T09:42:19;101881.38;;;7.24;100.00
38718;BME280;24468;52.128;9.278;2024-01-25T09:44:45;101877.34;;;7.71;100.00
38718;BME280;24468;52.128;9.278;2024-01-25T09:47:11;101875.97;;;8.09;100.00
38718;BME280;24468;52.128;9.278;2024-01-25T09:49:38;101878.56;;;8.16;100.00
38718;BME280;24468;52.128;9.278;2024-01-25T09:52:04;101870.03;;;8.52;100.00
38718;BME280;24468;52.128;9.278;2024-01-25T09:54:34;101868.41;;;8.38;100.00
38718;BME280;24468;52.128;9.278;2024-01-25T09:57:14;101866.09;;;8.12;100.00
38718;BME280;24468;52.128;9.278;2024-01-25T09:59:43;101882.31;;;8.05;100.00
38718;BME280;24468;52.128;9.278;2024-01-25T10:02:10;101869.16;;;7.82;100.00
38718;BME280;24468;52.128;9.278;2024-01-25T10:04:36;101878.00;;;7.90;100.00
38718;BME280;24468;52.128;9.278;2024-01-25T10:07:01;101872.31;;;8.17;100.00
38718;BME280;24468;52.128;9.278;2024-01-25T10:09:27;101876.88;;;8.76;100.00
38718;BME280;24468;52.128;9.278;2024-01-25T10:11:52;101877.28;;;8.48;100.00
38718;BME280;24468;52.128;9.278;2024-01-25T10:14:18;101872.31;;;8.79;100.00
38718;BME280;24468;52.128;9.278;2024-01-25T10:16:45;101871.91;;;8.48;100.00
38718;BME280;24468;52.128;9.278;2024-01-25T10:19:12;101880.09;;;8.36;100.00
38718;BME280;24468;52.128;9.278;2024-01-25T10:21:37;101877.50;;;8.28;100.00
38718;BME280;24468;52.128;9.278;2024-01-25T10:24:05;101892.09;;;8.09;100.00
38718;BME280;24468;52.128;9.278;2024-01-25T10:26:31;101897.09;;;8.42;100.00
38718;BME280;24468;52.128;9.278;2024-01-25T10:28:57;101895.66;;;8.79;100.00
38718;BME280;24468;52.128;9.278;2024-01-25T10:31:24;101905.19;;;8.39;100.00
38718;BME280;24468;52.128;9.278;2024-01-25T10:33:52;101892.34;;;8.58;100.00
38718;BME280;24468;52.128;9.278;2024-01-25T10:36:21;101912.09;;;8.59;100.00
38718;BME280;24468;52.128;9.278;2024-01-25T10:38:48;101903.34;;;8.43;100.00
38718;BME280;24468;52.128;9.278;2024-01-25T10:41:15;101896.16;;;8.43;100.00
38718;BME280;24468;52.128;9.278;2024-01-25T10:43:41;101899.88;;;8.30;100.00
38718;BME280;24468;52.128;9.278;2024-01-25T10:46:07;101888.09;;;8.43;100.00
38718;BME280;24468;52.128;9.278;2024-01-25T10:48:34;101899.81;;;8.39;100.00
38718;BME280;24468;52.128;9.278;2024-01-25T10:51:01;101893.31;;;8.56;100.00
38718;BME280;24468;52.128;9.278;2024-01-25T10:53:34;101890.72;;;8.46;100.00
38718;BME280;24468;52.128;9.278;2024-01-25T10:56:00;101891.25;;;8.05;100.00
38718;BME280;24468;52.128;9.278;2024-01-25T10:58:33;101896.41;;;8.22;100.00
38718;BME280;24468;52.128;9.278;2024-01-25T11:01:01;101898.78;;;8.48;100.00
38718;BME280;24468;52.128;9.278;2024-01-25T11:03:30;101886.97;;;8.58;100.00
38718;BME280;24468;52.128;9.278;2024-01-25T11:06:11;101880.22;;;8.88;100.00
38718;BME280;24468;52.128;9.278;2024-01-25T11:08:41;101894.47;;;8.33;100.00
38718;BME280;24468;52.128;9.278;2024-01-25T11:11:09;101882.09;;;8.85;100.00
38718;BME280;24468;52.128;9.278;2024-01-25T11:13:39;101880.16;;;8.95;100.00
38718;BME280;24468;52.128;9.278;2024-01-25T11:16:17;101881.50;;;9.20;100.00
38718;BME280;24468;52.128;9.278;2024-01-25T11:18:50;101889.69;;;9.14;100.00
38718;BME280;24468;52.128;9.278;2024-01-25T11:21:39;101885.53;;;9.46;100.00
38718;BME280;24468;52.128;9.278;2024-01-25T11:24:05;101880.41;;;9.80;100.00
38718;BME280;24468;52.128;9.278;2024-01-25T11:26:33;101883.97;;;9.82;100.00
38718;BME280;24468;52.128;9.278;2024-01-25T11:28:58;101878.31;;;9.94;100.00
38718;BME280;24468;52.128;9.278;2024-01-25T11:31:27;101891.09;;;9.85;100.00
38718;BME280;24468;52.128;9.278;2024-01-25T11:34:00;101881.34;;;9.77;100.00
38718;BME280;24468;52.128;9.278;2024-01-25T11:36:26;101883.22;;;9.74;100.00
38718;BME280;24468;52.128;9.278;2024-01-25T11:38:52;101892.72;;;9.47;100.00
38718;BME280;24468;52.128;9.278;2024-01-25T11:41:18;101875.28;;;9.66;100.00
38718;BME280;24468;52.128;9.278;2024-01-25T11:43:43;101867.63;;;9.90;100.00
38718;BME280;24468;52.128;9.278;2024-01-25T11:46:09;101867.53;;;9.48;100.00
38718;BME280;24468;52.128;9.278;2024-01-25T11:48:39;101876.31;;;9.09;100.00
38718;BME280;24468;52.128;9.278;2024-01-25T11:51:06;101856.66;;;9.54;100.00
38718;BME280;24468;52.128;9.278;2024-01-25T11:53:31;101863.25;;;9.84;100.00
38718;BME280;24468;52.128;9.278;2024-01-25T11:55:57;101852.22;;;9.96;100.00
38718;BME280;24468;52.128;9.278;2024-01-25T11:58:23;101854.63;;;9.65;100.00
38718;BME280;24468;52.128;9.278;2024-01-25T12:00:49;101860.66;;;9.33;100.00
38718;BME280;24468;52.128;9.278;2024-01-25T12:03:16;101857.81;;;9.41;100.00
38718;BME280;24468;52.128;9.278;2024-01-25T12:05:42;101847.69;;;9.53;100.00
38718;BME280;24468;52.128;9.278;2024-01-25T12:08:09;101848.13;;;9.77;100.00
38718;BME280;24468;52.128;9.278;2024-01-25T12:10:37;101862.13;;;9.00;100.00
38718;BME280;24468;52.128;9.278;2024-01-25T12:13:03;101852.25;;;9.50;100.00
38718;BME280;24468;52.128;9.278;2024-01-25T12:15:32;101846.38;;;9.26;100.00
38718;BME280;24468;52.128;9.278;2024-01-25T12:17:58;101858.34;;;9.11;100.00
38718;BME280;24468;52.128;9.278;2024-01-25T12:20:24;101872.50;;;9.21;100.00
38718;BME280;24468;52.128;9.278;2024-01-25T12:22:50;101871.00;;;9.05;100.00
38718;BME280;24468;52.128;9.278;2024-01-25T12:25:15;101863.25;;;8.86;100.00
38718;BME280;24468;52.128;9.278;2024-01-25T12:27:41;101868.91;;;8.70;100.00
38718;BME280;24468;52.128;9.278;2024-01-25T12:30:07;101860.16;;;9.59;100.00
38718;BME280;24468;52.128;9.278;2024-01-25T12:32:36;101847.59;;;9.58;100.00
38718;BME280;24468;52.128;9.278;2024-01-25T12:35:02;101840.25;;;9.66;100.00
38718;BME280;24468;52.128;9.278;2024-01-25T12:37:27;101836.41;;;9.79;100.00
38718;BME280;24468;52.128;9.278;2024-01-25T12:39:54;101845.81;;;10.02;100.00
38718;BME280;24468;52.128;9.278;2024-01-25T12:42:20;101830.06;;;10.22;100.00
38718;BME280;24468;52.128;9.278;2024-01-25T12:44:46;101839.50;;;10.03;100.00